sensor_id;sensor_type;location;lat;lon;timestamp;P1;durP1;ratioP1;P2;durP2;ratioP2
55758;SDS011;41678;52.126;20.664;2023-01-06T00:02:29;3.78;;;1.45;;
55758;SDS011;41678;52.126;20.664;2023-01-06T00:07:49;6.68;;;2.45;;
55758;SDS011;41678;52.126;20.664;2023-01-06T00:13:10;4.25;;;1.77;;
55758;SDS011;41678;52.126;20.664;2023-01-06T00:18:29;7.47;;;2.67;;
55758;SDS011;41678;52.126;20.664;2023-01-06T00:23:48;6.18;;;2.90;;
55758;SDS011;41678;52.126;20.664;2023-01-06T00:29:08;8.10;;;1.92;;
55758;SDS011;41678;52.126;20.664;2023-01-06T00:34:29;6.55;;;3.05;;
55758;SDS011;41678;52.126;20.664;2023-01-06T00:39:48;5.93;;;2.58;;
55758;SDS011;41678;52.126;20.664;2023-01-06T00:45:07;14.93;;;2.65;;
55758;SDS011;41678;52.126;20.664;2023-01-06T00:50:27;4.68;;;2.25;;
55758;SDS011;41678;52.126;20.664;2023-01-06T00:55:47;2.33;;;0.95;;
55758;SDS011;41678;52.126;20.664;2023-01-06T01:01:07;5.38;;;2.35;;
55758;SDS011;41678;52.126;20.664;2023-01-06T01:06:27;5.78;;;2.35;;
55758;SDS011;41678;52.126;20.664;2023-01-06T01:11:47;4.68;;;1.98;;
55758;SDS011;41678;52.126;20.664;2023-01-06T01:17:27;6.28;;;2.75;;
55758;SDS011;41678;52.126;20.664;2023-01-06T01:22:48;8.82;;;3.30;;
55758;SDS011;41678;52.126;20.664;2023-01-06T01:28:08;7.38;;;3.17;;
55758;SDS011;41678;52.126;20.664;2023-01-06T01:33:28;7.85;;;3.28;;
55758;SDS011;41678;52.126;20.664;2023-01-06T01:38:48;9.15;;;3.38;;
55758;SDS011;41678;52.126;20.664;2023-01-06T01:55:35;6.45;;;3.22;;
55758;SDS011;41678;52.126;20.664;2023-01-06T02:00:56;8.15;;;3.40;;
55758;SDS011;41678;52.126;20.664;2023-01-06T02:06:17;5.72;;;2.38;;
55758;SDS011;41678;52.126;20.664;2023-01-06T02:11:42;6.70;;;2.67;;
55758;SDS011;41678;52.126;20.664;2023-01-06T02:23:22;6.45;;;3.22;;
55758;SDS011;41678;52.126;20.664;2023-01-06T02:29:06;5.75;;;2.85;;
55758;SDS011;41678;52.126;20.664;2023-01-06T02:57:11;6.82;;;3.15;;
55758;SDS011;41678;52.126;20.664;2023-01-06T03:02:33;6.05;;;2.33;;
55758;SDS011;41678;52.126;20.664;2023-01-06T03:07:56;7.18;;;2.33;;
55758;SDS011;41678;52.126;20.664;2023-01-06T03:19:01;6.88;;;2.63;;
55758;SDS011;41678;52.126;20.664;2023-01-06T03:24:22;7.00;;;2.58;;
55758;SDS011;41678;52.126;20.664;2023-01-06T03:29:42;8.25;;;2.60;;
55758;SDS011;41678;52.126;20.664;2023-01-06T03:40:27;7.95;;;3.05;;
55758;SDS011;41678;52.126;20.664;2023-01-06T03:51:44;7.88;;;2.70;;
55758;SDS011;41678;52.126;20.664;2023-01-06T03:57:27;3.53;;;1.70;;
55758;SDS011;41678;52.126;20.664;2023-01-06T04:02:51;5.63;;;2.40;;
55758;SDS011;41678;52.126;20.664;2023-01-06T04:08:15;7.70;;;2.58;;
55758;SDS011;41678;52.126;20.664;2023-01-06T04:13:35;7.60;;;2.85;;
55758;SDS011;41678;52.126;20.664;2023-01-06T04:18:55;6.32;;;2.33;;
55758;SDS011;41678;52.126;20.664;2023-01-06T04:24:14;7.30;;;2.25;;
55758;SDS011;41678;52.126;20.664;2023-01-06T04:29:34;7.38;;;2.72;;
55758;SDS011;41678;52.126;20.664;2023-01-06T04:34:54;4.93;;;2.15;;
55758;SDS011;41678;52.126;20.664;2023-01-06T04:40:15;7.50;;;3.00;;
55758;SDS011;41678;52.126;20.664;2023-01-06T04:45:35;7.45;;;2.45;;
55758;SDS011;41678;52.126;20.664;2023-01-06T04:51:01;7.13;;;2.45;;
55758;SDS011;41678;52.126;20.664;2023-01-06T04:56:21;7.40;;;2.92;;
55758;SDS011;41678;52.126;20.664;2023-01-06T05:01:40;10.35;;;2.78;;
55758;SDS011;41678;52.126;20.664;2023-01-06T05:07:00;6.07;;;2.75;;
55758;SDS011;41678;52.126;20.664;2023-01-06T05:12:19;7.43;;;2.72;;
55758;SDS011;41678;52.126;20.664;2023-01-06T05:17:39;6.93;;;3.40;;
55758;SDS011;41678;52.126;20.664;2023-01-06T05:22:59;3.55;;;1.75;;
55758;SDS011;41678;52.126;20.664;2023-01-06T05:28:18;8.05;;;3.15;;
55758;SDS011;41678;52.126;20.664;2023-01-06T05:33:38;7.60;;;2.92;;
55758;SDS011;41678;52.126;20.664;2023-01-06T05:38:58;7.32;;;3.40;;
55758;SDS011;41678;52.126;20.664;2023-01-06T05:44:17;5.78;;;2.05;;
55758;SDS011;41678;52.126;20.664;2023-01-06T05:49:37;7.05;;;2.88;;
55758;SDS011;41678;52.126;20.664;2023-01-06T05:54:56;10.52;;;3.17;;
55758;SDS011;41678;52.126;20.664;2023-01-06T06:00:16;4.70;;;1.80;;
55758;SDS011;41678;52.126;20.664;2023-01-06T06:05:36;7.43;;;3.15;;
55758;SDS011;41678;52.126;20.664;2023-01-06T06:10:55;7.03;;;3.05;;
55758;SDS011;41678;52.126;20.664;2023-01-06T06:16:15;17.95;;;4.03;;
55758;SDS011;41678;52.126;20.664;2023-01-06T06:21:37;7.03;;;3.00;;
55758;SDS011;41678;52.126;20.664;2023-01-06T06:26:57;20.45;;;4.05;;
55758;SDS011;41678;52.126;20.664;2023-01-06T06:32:16;7.45;;;3.20;;
55758;SDS011;41678;52.126;20.664;2023-01-06T06:37:36;6.82;;;2.72;;
55758;SDS011;41678;52.126;20.664;2023-01-06T06:42:55;7.15;;;3.13;;
55758;SDS011;41678;52.126;20.664;2023-01-06T06:48:15;7.22;;;2.65;;
55758;SDS011;41678;52.126;20.664;2023-01-06T06:53:36;7.10;;;3.05;;
55758;SDS011;41678;52.126;20.664;2023-01-06T06:58:56;7.85;;;2.67;;
55758;SDS011;41678;52.126;20.664;2023-01-06T07:04:15;6.00;;;2.92;;
55758;SDS011;41678;52.126;20.664;2023-01-06T07:09:34;9.38;;;2.97;;
55758;SDS011;41678;52.126;20.664;2023-01-06T07:14:54;8.60;;;4.03;;
55758;SDS011;41678;52.126;20.664;2023-01-06T07:20:13;6.35;;;2.65;;
55758;SDS011;41678;52.126;20.664;2023-01-06T07:25:33;6.72;;;3.15;;
55758;SDS011;41678;52.126;20.664;2023-01-06T07:30:52;6.45;;;2.90;;
55758;SDS011;41678;52.126;20.664;2023-01-06T07:36:12;6.50;;;2.25;;
55758;SDS011;41678;52.126;20.664;2023-01-06T07:41:32;6.68;;;2.97;;
55758;SDS011;41678;52.126;20.664;2023-01-06T07:46:53;7.38;;;3.17;;
55758;SDS011;41678;52.126;20.664;2023-01-06T07:52:13;6.47;;;2.38;;
55758;SDS011;41678;52.126;20.664;2023-01-06T07:57:32;6.95;;;2.88;;
55758;SDS011;41678;52.126;20.664;2023-01-06T08:02:51;7.53;;;2.60;;
55758;SDS011;41678;52.126;20.664;2023-01-06T08:08:11;10.45;;;3.17;;
55758;SDS011;41678;52.126;20.664;2023-01-06T08:13:31;13.30;;;3.78;;
55758;SDS011;41678;52.126;20.664;2023-01-06T08:18:52;12.82;;;3.67;;
55758;SDS011;41678;52.126;20.664;2023-01-06T08:24:11;11.07;;;3.60;;
55758;SDS011;41678;52.126;20.664;2023-01-06T08:29:31;7.85;;;3.50;;
55758;SDS011;41678;52.126;20.664;2023-01-06T08:34:50;7.30;;;2.95;;
55758;SDS011;41678;52.126;20.664;2023-01-06T08:40:10;8.52;;;4.07;;
55758;SDS011;41678;52.126;20.664;2023-01-06T08:45:31;16.48;;;5.47;;
55758;SDS011;41678;52.126;20.664;2023-01-06T08:50:51;11.25;;;5.05;;
55758;SDS011;41678;52.126;20.664;2023-01-06T08:56:11;7.78;;;3.65;;
55758;SDS011;41678;52.126;20.664;2023-01-06T09:01:38;12.77;;;4.50;;
55758;SDS011;41678;52.126;20.664;2023-01-06T09:06:58;9.70;;;4.18;;
55758;SDS011;41678;52.126;20.664;2023-01-06T09:12:19;15.75;;;4.60;;
55758;SDS011;41678;52.126;20.664;2023-01-06T09:17:39;8.18;;;3.88;;
55758;SDS011;41678;52.126;20.664;2023-01-06T09:23:00;10.70;;;4.95;;
55758;SDS011;41678;52.126;20.664;2023-01-06T09:28:20;8.95;;;3.33;;
55758;SDS011;41678;52.126;20.664;2023-01-06T09:33:40;12.13;;;4.43;;
55758;SDS011;41678;52.126;20.664;2023-01-06T09:38:59;10.55;;;4.93;;
55758;SDS011;41678;52.126;20.664;2023-01-06T09:44:29;8.70;;;4.38;;
55758;SDS011;41678;52.126;20.664;2023-01-06T09:55:57;7.75;;;3.45;;
55758;SDS011;41678;52.126;20.664;2023-01-06T10:01:21;14.27;;;4.78;;
55758;SDS011;41678;52.126;20.664;2023-01-06T10:06:49;10.38;;;5.03;;
55758;SDS011;41678;52.126;20.664;2023-01-06T10:30:19;10.23;;;5.20;;
55758;SDS011;41678;52.126;20.664;2023-01-06T10:35:45;14.48;;;4.95;;
55758;SDS011;41678;52.126;20.664;2023-01-06T10:41:08;10.32;;;4.82;;
55758;SDS011;41678;52.126;20.664;2023-01-06T10:46:37;15.75;;;5.68;;
55758;SDS011;41678;52.126;20.664;2023-01-06T10:57:23;14.27;;;5.75;;
55758;SDS011;41678;52.126;20.664;2023-01-06T11:03:02;13.98;;;6.05;;
55758;SDS011;41678;52.126;20.664;2023-01-06T11:08:35;10.93;;;5.25;;
55758;SDS011;41678;52.126;20.664;2023-01-06T11:13:56;16.35;;;4.85;;
55758;SDS011;41678;52.126;20.664;2023-01-06T11:19:21;19.35;;;6.47;;
55758;SDS011;41678;52.126;20.664;2023-01-06T11:24:51;15.18;;;6.07;;
55758;SDS011;41678;52.126;20.664;2023-01-06T11:30:26;15.35;;;6.03;;
55758;SDS011;41678;52.126;20.664;2023-01-06T11:35:47;14.07;;;6.53;;
55758;SDS011;41678;52.126;20.664;2023-01-06T11:41:08;12.40;;;5.70;;
55758;SDS011;41678;52.126;20.664;2023-01-06T11:46:29;14.13;;;6.68;;
55758;SDS011;41678;52.126;20.664;2023-01-06T11:51:48;11.27;;;5.40;;
55758;SDS011;41678;52.126;20.664;2023-01-06T12:24:58;9.70;;;4.28;;
55758;SDS011;41678;52.126;20.664;2023-01-06T12:30:25;10.60;;;4.43;;
55758;SDS011;41678;52.126;20.664;2023-01-06T12:35:47;9.50;;;5.28;;
55758;SDS011;41678;52.126;20.664;2023-01-06T12:41:16;12.63;;;5.63;;
55758;SDS011;41678;52.126;20.664;2023-01-06T12:46:46;10.43;;;5.10;;
55758;SDS011;41678;52.126;20.664;2023-01-06T12:52:11;12.23;;;5.93;;
55758;SDS011;41678;52.126;20.664;2023-01-06T12:57:45;12.95;;;6.43;;
55758;SDS011;41678;52.126;20.664;2023-01-06T13:09:25;12.02;;;6.13;;
55758;SDS011;41678;52.126;20.664;2023-01-06T13:20:39;13.52;;;6.72;;
55758;SDS011;41678;52.126;20.664;2023-01-06T13:42:59;16.48;;;7.05;;
55758;SDS011;41678;52.126;20.664;2023-01-06T13:48:45;29.40;;;9.82;;
55758;SDS011;41678;52.126;20.664;2023-01-06T14:10:56;19.30;;;8.25;;
55758;SDS011;41678;52.126;20.664;2023-01-06T14:16:20;20.70;;;8.02;;
55758;SDS011;41678;52.126;20.664;2023-01-06T14:21:41;15.68;;;7.13;;
55758;SDS011;41678;52.126;20.664;2023-01-06T14:27:01;13.48;;;6.20;;
55758;SDS011;41678;52.126;20.664;2023-01-06T14:37:49;17.80;;;7.32;;
55758;SDS011;41678;52.126;20.664;2023-01-06T14:48:49;15.50;;;7.28;;
55758;SDS011;41678;52.126;20.664;2023-01-06T14:59:36;16.58;;;7.40;;
55758;SDS011;41678;52.126;20.664;2023-01-06T15:04:56;19.77;;;6.97;;
55758;SDS011;41678;52.126;20.664;2023-01-06T15:10:18;20.38;;;8.27;;
55758;SDS011;41678;52.126;20.664;2023-01-06T15:15:42;12.57;;;6.88;;
55758;SDS011;41678;52.126;20.664;2023-01-06T15:21:02;18.58;;;8.38;;
55758;SDS011;41678;52.126;20.664;2023-01-06T15:31:47;15.23;;;7.50;;
55758;SDS011;41678;52.126;20.664;2023-01-06T15:37:14;18.95;;;9.35;;
55758;SDS011;41678;52.126;20.664;2023-01-06T15:42:37;16.70;;;8.80;;
55758;SDS011;41678;52.126;20.664;2023-01-06T15:48:00;20.67;;;9.27;;
55758;SDS011;41678;52.126;20.664;2023-01-06T15:53:27;18.27;;;7.72;;
55758;SDS011;41678;52.126;20.664;2023-01-06T15:58:52;19.98;;;8.95;;
55758;SDS011;41678;52.126;20.664;2023-01-06T16:04:13;19.77;;;8.82;;
55758;SDS011;41678;52.126;20.664;2023-01-06T16:09:35;21.80;;;9.93;;
55758;SDS011;41678;52.126;20.664;2023-01-06T16:14:56;16.38;;;8.75;;
55758;SDS011;41678;52.126;20.664;2023-01-06T16:20:20;18.85;;;8.20;;
55758;SDS011;41678;52.126;20.664;2023-01-06T16:25:41;14.25;;;6.55;;
55758;SDS011;41678;52.126;20.664;2023-01-06T16:31:06;16.58;;;6.78;;
55758;SDS011;41678;52.126;20.664;2023-01-06T16:36:30;16.67;;;7.57;;
55758;SDS011;41678;52.126;20.664;2023-01-06T16:47:16;21.30;;;9.43;;
55758;SDS011;41678;52.126;20.664;2023-01-06T16:52:36;18.95;;;8.48;;
55758;SDS011;41678;52.126;20.664;2023-01-06T16:58:03;21.13;;;9.50;;
55758;SDS011;41678;52.126;20.664;2023-01-06T17:03:34;17.27;;;8.13;;
55758;SDS011;41678;52.126;20.664;2023-01-06T17:08:55;15.23;;;7.50;;
55758;SDS011;41678;52.126;20.664;2023-01-06T17:14:20;17.10;;;8.20;;
55758;SDS011;41678;52.126;20.664;2023-01-06T17:19:41;25.58;;;7.57;;
55758;SDS011;41678;52.126;20.664;2023-01-06T17:25:07;22.65;;;8.05;;
55758;SDS011;41678;52.126;20.664;2023-01-06T17:30:31;20.33;;;9.32;;
55758;SDS011;41678;52.126;20.664;2023-01-06T17:35:51;21.85;;;9.73;;
55758;SDS011;41678;52.126;20.664;2023-01-06T17:46:34;19.55;;;8.98;;
55758;SDS011;41678;52.126;20.664;2023-01-06T17:51:55;21.00;;;9.73;;
55758;SDS011;41678;52.126;20.664;2023-01-06T17:57:15;17.17;;;8.90;;
55758;SDS011;41678;52.126;20.664;2023-01-06T18:02:40;20.85;;;8.88;;
55758;SDS011;41678;52.126;20.664;2023-01-06T18:13:24;24.23;;;9.80;;
55758;SDS011;41678;52.126;20.664;2023-01-06T18:18:50;16.98;;;8.02;;
55758;SDS011;41678;52.126;20.664;2023-01-06T18:29:44;30.35;;;9.73;;
55758;SDS011;41678;52.126;20.664;2023-01-06T18:35:08;22.98;;;10.07;;
55758;SDS011;41678;52.126;20.664;2023-01-06T18:40:32;22.20;;;10.30;;
55758;SDS011;41678;52.126;20.664;2023-01-06T18:45:53;23.50;;;9.95;;
55758;SDS011;41678;52.126;20.664;2023-01-06T18:51:18;24.40;;;10.32;;
55758;SDS011;41678;52.126;20.664;2023-01-06T18:56:41;22.73;;;9.38;;
55758;SDS011;41678;52.126;20.664;2023-01-06T19:02:00;45.20;;;12.73;;
55758;SDS011;41678;52.126;20.664;2023-01-06T19:07:38;55.60;;;12.73;;
55758;SDS011;41678;52.126;20.664;2023-01-06T19:12:58;34.55;;;12.50;;
55758;SDS011;41678;52.126;20.664;2023-01-06T19:18:20;32.03;;;10.60;;
55758;SDS011;41678;52.126;20.664;2023-01-06T19:23:40;25.02;;;10.63;;
55758;SDS011;41678;52.126;20.664;2023-01-06T19:29:00;27.48;;;10.88;;
55758;SDS011;41678;52.126;20.664;2023-01-06T19:34:23;21.02;;;9.18;;
55758;SDS011;41678;52.126;20.664;2023-01-06T19:39:45;26.57;;;10.03;;
55758;SDS011;41678;52.126;20.664;2023-01-06T19:45:09;34.83;;;10.98;;
55758;SDS011;41678;52.126;20.664;2023-01-06T19:50:42;31.90;;;9.60;;
55758;SDS011;41678;52.126;20.664;2023-01-06T19:56:10;16.48;;;7.93;;
55758;SDS011;41678;52.126;20.664;2023-01-06T20:07:19;20.10;;;8.75;;
55758;SDS011;41678;52.126;20.664;2023-01-06T20:12:38;21.48;;;7.32;;
55758;SDS011;41678;52.126;20.664;2023-01-06T20:17:57;18.73;;;7.20;;
55758;SDS011;41678;52.126;20.664;2023-01-06T20:23:17;14.57;;;7.50;;
55758;SDS011;41678;52.126;20.664;2023-01-06T20:28:37;11.30;;;5.28;;
55758;SDS011;41678;52.126;20.664;2023-01-06T20:33:56;16.02;;;7.60;;
55758;SDS011;41678;52.126;20.664;2023-01-06T20:39:16;18.35;;;8.10;;
55758;SDS011;41678;52.126;20.664;2023-01-06T20:44:35;15.02;;;6.88;;
55758;SDS011;41678;52.126;20.664;2023-01-06T20:49:55;19.75;;;8.43;;
55758;SDS011;41678;52.126;20.664;2023-01-06T20:55:15;18.92;;;8.35;;
55758;SDS011;41678;52.126;20.664;2023-01-06T21:00:34;19.73;;;8.98;;
55758;SDS011;41678;52.126;20.664;2023-01-06T21:05:54;19.45;;;9.27;;
55758;SDS011;41678;52.126;20.664;2023-01-06T21:11:13;29.83;;;10.93;;
55758;SDS011;41678;52.126;20.664;2023-01-06T21:16:32;24.13;;;10.40;;
55758;SDS011;41678;52.126;20.664;2023-01-06T21:21:52;33.65;;;12.90;;
55758;SDS011;41678;52.126;20.664;2023-01-06T21:27:11;21.92;;;9.80;;
55758;SDS011;41678;52.126;20.664;2023-01-06T21:32:31;26.27;;;10.35;;
55758;SDS011;41678;52.126;20.664;2023-01-06T21:37:51;20.17;;;8.18;;
55758;SDS011;41678;52.126;20.664;2023-01-06T21:43:10;25.20;;;10.98;;
55758;SDS011;41678;52.126;20.664;2023-01-06T21:48:30;21.15;;;8.30;;
55758;SDS011;41678;52.126;20.664;2023-01-06T21:53:49;22.92;;;11.10;;
55758;SDS011;41678;52.126;20.664;2023-01-06T21:59:09;16.10;;;8.50;;
55758;SDS011;41678;52.126;20.664;2023-01-06T22:04:29;17.10;;;7.60;;
55758;SDS011;41678;52.126;20.664;2023-01-06T22:09:49;23.33;;;10.20;;
55758;SDS011;41678;52.126;20.664;2023-01-06T22:15:10;23.48;;;11.98;;
55758;SDS011;41678;52.126;20.664;2023-01-06T22:20:31;26.02;;;12.38;;
55758;SDS011;41678;52.126;20.664;2023-01-06T22:25:50;31.70;;;14.73;;
55758;SDS011;41678;52.126;20.664;2023-01-06T22:31:10;42.67;;;19.80;;
55758;SDS011;41678;52.126;20.664;2023-01-06T22:36:29;30.85;;;13.50;;
55758;SDS011;41678;52.126;20.664;2023-01-06T22:41:49;28.70;;;12.18;;
55758;SDS011;41678;52.126;20.664;2023-01-06T22:47:09;28.08;;;12.40;;
55758;SDS011;41678;52.126;20.664;2023-01-06T22:52:29;36.58;;;12.75;;
55758;SDS011;41678;52.126;20.664;2023-01-06T22:57:49;39.47;;;17.17;;
55758;SDS011;41678;52.126;20.664;2023-01-06T23:03:09;41.42;;;18.40;;
55758;SDS011;41678;52.126;20.664;2023-01-06T23:08:29;43.53;;;16.05;;
55758;SDS011;41678;52.126;20.664;2023-01-06T23:13:52;37.60;;;19.45;;
55758;SDS011;41678;52.126;20.664;2023-01-06T23:19:14;46.60;;;19.08;;
55758;SDS011;41678;52.126;20.664;2023-01-06T23:24:34;45.10;;;20.13;;
55758;SDS011;41678;52.126;20.664;2023-01-06T23:29:53;42.65;;;18.25;;
55758;SDS011;41678;52.126;20.664;2023-01-06T23:35:13;45.25;;;18.77;;
55758;SDS011;41678;52.126;20.664;2023-01-06T23:40:33;46.30;;;19.17;;
55758;SDS011;41678;52.126;20.664;2023-01-06T23:45:52;35.53;;;17.63;;
55758;SDS011;41678;52.126;20.664;2023-01-06T23:51:17;36.88;;;17.05;;
55758;SDS011;41678;52.126;20.664;2023-01-06T23:56:37;32.50;;;15.63;;
